Forestville, PA

8:26 AM EDT on September 04, 2015 (GMT -0400)
Weathervane Hill | | Change Station
CLOSE
Current Station
Personal Weather Station
Location: Slippery Rock, PA
Elevation: 1230 ft
Nearby Weather Stations

Elev 1230 ft 41.05 °N, 80.03 °W | Updated 1 minute ago

Fog
Fog
66.6 °F
Feels Like 66.6 °F
N
0.0
Wind Variable Wind from West
Gusts 0.0 mph

Today
High -- | Low -- °F
--% Chance of Precip.
Yesterday
High -- | Low -- °F
Precip. -- in
6:49 AM 7:48 PM
Waning Gibbous, 60% visible
Pressure 30.10 in
Visibility 0.2 miles
Clouds Overcast 100 ft
Dew Point 66 °F
Humidity 99%
Rainfall 0.00 in
Snow Depth Not available.
UV 0 out of 12
Pollen 8.70 out of 12
Air Quality Not available.
Flu Activity Not available.
METAR KFKL 041215Z AUTO 21003KT 1/4SM OVC001 19/18 A3010 RMK AO1
Pressure 30.10 in
Visibility 0.2 miles
Clouds Overcast 100 ft
Dew Point 66 °F
Humidity 99%
Rainfall 0.00 in
Snow Depth Not available.
UV 0 out of 12
Pollen 8.70 out of 12
Air Quality Not available.
Flu Activity Not available.
METAR KFKL 041215Z AUTO 21003KT 1/4SM OVC001 19/18 A3010 RMK AO1

10-Day Weather Forecast

×

Almanac

Astronomy

Sep. 04, 2015 Rise Set
Actual Time
Civil Twilight
Nautical Twilight
Astronomical Twilight
Moon
Length of Visible Light
Length of Day
Tomorrow will be .
, % of the Moon is Illuminated

Today's Extremes

State Highs State Lows

Community

WunderPhotos

Upload Photos

1,852,160 photos uploaded!

WunderBlogs® & News

Nearby

Air Quality

  Air Quality AQ Index Pollutant
Not available.

Snow Depth

Station Depth Elevation

Earthquake Activity

City Distance Mag. Time & Date
Minimum magnitude displayed is 2.5.

Coastal Water Temperatures

Place Temperature

Stations

Nearby Weather Stations

Station Location Temp. Windchill Dew Point Humidity Wind Precip. Elev Updated Type